UPS135 MDPC-KLAX
Flight info
| Callsign | UPS135 |
|---|---|
| Flight time | N/A |
| Altitude | 30000 |
| Route | MALVN2W MALVN DCT ALBBE Y589 MADIZ DCT REMIS/N0499F320 Q100 LEV J86 SPURS/N0494F340 J86 ELP J50 BLH |
| Aircraft | MD11/H-SDE1E2E3FGHIJ2J3J4J5M1RWXY/LB1D1 |
Departure
| Time | 2026-04-29 11:40 |
|---|---|
| Airport | Punta Cana International Airport (MDPC) |
Arrival
| Time | N/A |
|---|---|
| Airport | Los Angeles International Airport (KLAX) |
| Time | Latitude | Longitude | Altitude | Speed | Heading |
|---|---|---|---|---|---|
| 2026-04-29 11:30 | 18.56474 | -68.37177 | 50 ft | 3 kts | 233° |
| 2026-04-29 11:30 | 18.56480 | -68.37170 | 53 ft | 0 kts | 256° |
| 2026-04-29 11:32 | 18.56478 | -68.37182 | 52 ft | 5 kts | 261° |
| 2026-04-29 11:32 | 18.56479 | -68.37243 | 56 ft | 12 kts | 272° |
| 2026-04-29 11:32 | 18.56475 | -68.37346 | 51 ft | 16 kts | 264° |
| 2026-04-29 11:32 | 18.56465 | -68.37470 | 55 ft | 18 kts | 265° |
| 2026-04-29 11:33 | 18.56453 | -68.37610 | 53 ft | 20 kts | 264° |
| 2026-04-29 11:33 | 18.56449 | -68.37748 | 52 ft | 17 kts | 288° |
| 2026-04-29 11:33 | 18.56538 | -68.37792 | 51 ft | 15 kts | 355° |
| 2026-04-29 11:33 | 18.56657 | -68.37808 | 51 ft | 20 kts | 339° |
| 2026-04-29 11:34 | 18.56735 | -68.37932 | 52 ft | 23 kts | 292° |
| 2026-04-29 11:34 | 18.56796 | -68.38076 | 53 ft | 20 kts | 294° |
| 2026-04-29 11:34 | 18.56850 | -68.38197 | 58 ft | 16 kts | 301° |
| 2026-04-29 11:34 | 18.56920 | -68.38260 | 56 ft | 7 kts | 339° |
| 2026-04-29 11:35 | 18.56923 | -68.38261 | 57 ft | 0 kts | 340° |
| 2026-04-29 11:38 | 18.56926 | -68.38262 | 61 ft | 2 kts | 340° |
| 2026-04-29 11:38 | 18.56946 | -68.38269 | 56 ft | 4 kts | 340° |
| 2026-04-29 11:39 | 18.56983 | -68.38282 | 59 ft | 8 kts | 348° |
| 2026-04-29 11:39 | 18.57039 | -68.38255 | 59 ft | 13 kts | 56° |
| 2026-04-29 11:39 | 18.57145 | -68.37896 | 59 ft | 91 kts | 73° |
| 2026-04-29 11:39 | 18.57384 | -68.37029 | 54 ft | 151 kts | 74° |
| 2026-04-29 11:40 | 18.57719 | -68.35829 | 93 ft | 184 kts | 72° |
| 2026-04-29 11:40 | 18.58115 | -68.34526 | 457 ft | 191 kts | 72° |
| 2026-04-29 11:40 | 18.58544 | -68.33170 | 837 ft | 195 kts | 70° |
| 2026-04-29 11:40 | 18.59002 | -68.31858 | 1271 ft | 188 kts | 78° |
| 2026-04-29 11:41 | 18.58837 | -68.30520 | 1695 ft | 190 kts | 117° |
| 2026-04-29 11:41 | 18.57979 | -68.29481 | 2278 ft | 196 kts | 136° |
| 2026-04-29 11:41 | 18.56907 | -68.28569 | 2815 ft | 199 kts | 138° |
| 2026-04-29 11:41 | 18.55804 | -68.27657 | 3260 ft | 208 kts | 139° |
| 2026-04-29 11:42 | 18.54583 | -68.26653 | 3400 ft | 237 kts | 142° |
| 2026-04-29 11:42 | 18.52991 | -68.25933 | 3532 ft | 266 kts | 172° |
| 2026-04-29 11:42 | 18.51098 | -68.26253 | 3689 ft | 292 kts | 205° |
| 2026-04-29 11:42 | 18.49447 | -68.27554 | 4138 ft | 302 kts | 224° |
| 2026-04-29 11:43 | 18.48070 | -68.29228 | 4809 ft | 305 kts | 237° |
| 2026-04-29 11:43 | 18.47231 | -68.31268 | 5505 ft | 305 kts | 258° |
| 2026-04-29 11:43 | 18.46975 | -68.33507 | 6112 ft | 308 kts | 268° |
| 2026-04-29 11:43 | 18.46920 | -68.35782 | 6741 ft | 313 kts | 270° |
| 2026-04-29 11:44 | 18.46895 | -68.38076 | 7474 ft | 312 kts | 270° |
| 2026-04-29 11:44 | 18.46862 | -68.40330 | 8227 ft | 312 kts | 269° |
| 2026-04-29 11:44 | 18.46814 | -68.42618 | 8959 ft | 312 kts | 269° |
| 2026-04-29 11:44 | 18.46754 | -68.44908 | 9681 ft | 314 kts | 268° |
| 2026-04-29 11:45 | 18.46685 | -68.47221 | 10178 ft | 323 kts | 268° |
| 2026-04-29 11:45 | 18.46607 | -68.49662 | 10296 ft | 342 kts | 268° |
| 2026-04-29 11:45 | 18.46523 | -68.52236 | 10502 ft | 357 kts | 268° |
| 2026-04-29 11:45 | 18.46751 | -68.54848 | 11037 ft | 362 kts | 283° |
| 2026-04-29 11:46 | 18.47585 | -68.57362 | 11564 ft | 367 kts | 292° |
| 2026-04-29 11:46 | 18.48683 | -68.59814 | 12148 ft | 371 kts | 295° |
| 2026-04-29 11:46 | 18.49863 | -68.62254 | 12737 ft | 375 kts | 296° |
| 2026-04-29 11:46 | 18.51056 | -68.64705 | 13341 ft | 378 kts | 295° |
| 2026-04-29 11:47 | 18.52246 | -68.67181 | 13887 ft | 382 kts | 295° |
| 2026-04-29 11:47 | 18.53437 | -68.69694 | 14391 ft | 384 kts | 295° |
| 2026-04-29 11:47 | 18.54625 | -68.72228 | 14930 ft | 387 kts | 295° |
| 2026-04-29 11:47 | 18.55811 | -68.74775 | 15491 ft | 388 kts | 294° |
| 2026-04-29 11:48 | 18.56985 | -68.77306 | 16000 ft | 390 kts | 294° |
| 2026-04-29 11:48 | 18.58179 | -68.79887 | 16513 ft | 393 kts | 294° |
| 2026-04-29 11:48 | 18.59383 | -68.82492 | 17019 ft | 395 kts | 294° |
| 2026-04-29 11:48 | 18.60591 | -68.85108 | 17519 ft | 398 kts | 294° |
| 2026-04-29 11:49 | 18.61807 | -68.87744 | 18009 ft | 401 kts | 294° |
| 2026-04-29 11:49 | 18.63032 | -68.90398 | 18467 ft | 404 kts | 294° |
| 2026-04-29 11:49 | 18.64261 | -68.93070 | 18912 ft | 406 kts | 294° |
| 2026-04-29 11:49 | 18.65495 | -68.95753 | 19335 ft | 407 kts | 294° |
| 2026-04-29 11:50 | 18.66719 | -68.98413 | 19767 ft | 409 kts | 293° |
| 2026-04-29 11:50 | 18.67963 | -69.01119 | 20206 ft | 411 kts | 293° |
| 2026-04-29 11:50 | 18.69215 | -69.03839 | 20626 ft | 413 kts | 293° |
| 2026-04-29 11:50 | 18.70472 | -69.06573 | 21046 ft | 415 kts | 293° |
| 2026-04-29 11:51 | 18.71734 | -69.09317 | 21470 ft | 417 kts | 292° |
| 2026-04-29 11:51 | 18.73004 | -69.12079 | 21885 ft | 419 kts | 292° |
| 2026-04-29 11:51 | 18.74278 | -69.14852 | 22292 ft | 421 kts | 292° |
| 2026-04-29 11:51 | 18.75560 | -69.17643 | 22695 ft | 423 kts | 292° |
| 2026-04-29 11:52 | 18.76845 | -69.20443 | 23101 ft | 425 kts | 292° |
| 2026-04-29 11:52 | 18.78136 | -69.23257 | 23497 ft | 427 kts | 292° |
| 2026-04-29 11:52 | 18.79431 | -69.26082 | 23858 ft | 428 kts | 292° |
| 2026-04-29 11:52 | 18.80731 | -69.28915 | 24228 ft | 429 kts | 292° |
| 2026-04-29 11:53 | 18.81592 | -69.30794 | 24467 ft | 429 kts | 292° |
| 2026-04-29 11:53 | 18.83316 | -69.34559 | 24955 ft | 430 kts | 292° |
| 2026-04-29 11:53 | 18.84620 | -69.37407 | 25330 ft | 430 kts | 292° |
| 2026-04-29 11:53 | 18.85923 | -69.40255 | 25667 ft | 431 kts | 292° |
| 2026-04-29 11:54 | 18.87228 | -69.43108 | 26019 ft | 432 kts | 292° |
| 2026-04-29 11:54 | 18.88096 | -69.45007 | 26244 ft | 432 kts | 292° |
| 2026-04-29 11:54 | 18.89403 | -69.47868 | 26580 ft | 433 kts | 292° |
| 2026-04-29 11:54 | 18.90714 | -69.50740 | 26901 ft | 434 kts | 292° |
| 2026-04-29 11:55 | 18.92025 | -69.53611 | 27228 ft | 435 kts | 291° |
| 2026-04-29 11:55 | 18.93342 | -69.56497 | 27534 ft | 436 kts | 291° |
| 2026-04-29 11:55 | 18.94661 | -69.59391 | 27846 ft | 437 kts | 291° |
| 2026-04-29 11:55 | 18.95981 | -69.62286 | 28155 ft | 438 kts | 291° |
| 2026-04-29 11:56 | 18.97305 | -69.65192 | 28465 ft | 439 kts | 291° |
| 2026-04-29 11:56 | 18.98631 | -69.68106 | 28818 ft | 439 kts | 291° |
| 2026-04-29 11:56 | 18.99953 | -69.71018 | 29118 ft | 440 kts | 291° |
| 2026-04-29 11:56 | 19.01275 | -69.73940 | 29410 ft | 440 kts | 291° |
| 2026-04-29 11:57 | 19.02581 | -69.76827 | 29698 ft | 441 kts | 291° |
| 2026-04-29 11:57 | 19.03909 | -69.79758 | 30000 ft | 442 kts | 291° |
| 2026-04-29 11:57 | 19.05242 | -69.82700 | 30263 ft | 444 kts | 291° |
| 2026-04-29 11:57 | 19.06581 | -69.85651 | 30507 ft | 445 kts | 291° |
| 2026-04-29 11:58 | 19.07923 | -69.88610 | 30745 ft | 446 kts | 291° |
| 2026-04-29 11:58 | 19.09262 | -69.91562 | 30999 ft | 446 kts | 291° |
| 2026-04-29 11:58 | 19.10607 | -69.94526 | 31282 ft | 445 kts | 291° |
| 2026-04-29 11:58 | 19.11941 | -69.97470 | 31575 ft | 443 kts | 291° |
| 2026-04-29 11:59 | 19.13255 | -70.00370 | 31843 ft | 442 kts | 291° |
| 2026-04-29 11:59 | 19.14585 | -70.03308 | 32115 ft | 441 kts | 291° |
| 2026-04-29 11:59 | 19.15908 | -70.06232 | 32390 ft | 440 kts | 291° |
| 2026-04-29 11:59 | 19.17229 | -70.09155 | 32640 ft | 439 kts | 291° |
| 2026-04-29 12:00 | 19.18545 | -70.12067 | 32878 ft | 438 kts | 291° |
| 2026-04-29 12:00 | 19.19856 | -70.14970 | 33134 ft | 437 kts | 291° |
| 2026-04-29 12:00 | 19.21145 | -70.17825 | 33367 ft | 436 kts | 291° |
| 2026-04-29 12:00 | 19.22448 | -70.20714 | 33609 ft | 435 kts | 290° |
| 2026-04-29 12:01 | 19.23765 | -70.23635 | 33834 ft | 433 kts | 290° |
| 2026-04-29 12:01 | 19.25046 | -70.26479 | 33949 ft | 435 kts | 290° |
| 2026-04-29 12:01 | 19.27660 | -70.32289 | 33998 ft | 439 kts | 290° |
| 2026-04-29 12:02 | 19.30296 | -70.38149 | 34006 ft | 441 kts | 290° |